Time;durP1;ratioP1;P1;durP2;ratioP2;P2;SDS_P1;SDS_P2;PMS_P1;PMS_P2;Temp;Humidity;BMP_temperature;BMP_pressure;BME280_temperature;BME280_humidity;BME280_pressure;Samples;Min_cycle;Max_cycle;Signal;HPM_P1;HPM_P2
2022/10/19 00:01:23;;;;;;;6.90;4.60;;;18.60;45.40;;;;;;10442973;28;20274;-67
2022/10/19 00:06:29;;;;;;;4.40;4.00;;;18.60;45.70;;;;;;10441952;28;20225;-67
2022/10/19 00:11:33;;;;;;;5.50;4.23;;;18.50;45.90;;;;;;10443709;28;20229;-67
2022/10/19 00:16:38;;;;;;;4.23;3.73;;;18.60;45.90;;;;;;10440337;28;20568;-67
2022/10/19 00:21:43;;;;;;;6.60;4.40;;;18.70;46.10;;;;;;10442244;28;20229;-70
2022/10/19 00:26:46;;;;;;;4.93;3.97;;;18.70;46.10;;;;;;10442406;28;20298;-70
2022/10/19 00:31:50;;;;;;;5.27;4.43;;;18.70;45.90;;;;;;10440445;28;20290;-70
2022/10/19 00:36:54;;;;;;;5.07;4.07;;;18.70;46.10;;;;;;10437803;28;20233;-70
2022/10/19 00:41:57;;;;;;;4.90;4.40;;;18.60;46.30;;;;;;10441055;28;20642;-71
2022/10/19 00:47:05;;;;;;;4.70;4.30;;;18.60;46.10;;;;;;10439471;28;20745;-70
2022/10/19 00:52:12;;;;;;;5.17;4.50;;;18.60;47.10;;;;;;10439200;28;20241;-70
2022/10/19 00:57:16;;;;;;;4.90;4.60;;;18.60;47.00;;;;;;10436105;28;20229;-70
2022/10/19 01:02:19;;;;;;;4.87;4.20;;;18.60;46.50;;;;;;10439318;28;20244;-70
2022/10/19 01:07:25;;;;;;;4.20;3.90;;;18.60;46.60;;;;;;10441089;28;20237;-67
2022/10/19 01:12:50;;;;;;;4.80;4.40;;;18.60;47.50;;;;;;10432827;28;20253;-67
2022/10/19 01:18:01;;;;;;;3.93;3.73;;;18.70;47.60;;;;;;10440635;28;20228;-71
2022/10/19 01:23:38;;;;;;;7.97;4.80;;;18.80;47.70;;;;;;10438493;28;20221;-69
2022/10/19 01:28:53;;;;;;;4.87;4.50;;;18.80;47.70;;;;;;10414499;28;20221;-68
2022/10/19 01:34:07;;;;;;;5.13;4.70;;;18.80;47.70;;;;;;10439152;28;20232;-68
2022/10/19 01:39:18;;;;;;;4.60;4.20;;;18.90;47.80;;;;;;10438698;28;20274;-68
2022/10/19 01:44:29;;;;;;;4.50;4.10;;;18.90;47.40;;;;;;10437975;28;20530;-68
2022/10/19 01:49:41;;;;;;;5.30;4.40;;;18.90;47.60;;;;;;10439018;28;20232;-68
2022/10/19 01:54:49;;;;;;;6.80;4.57;;;18.90;47.60;;;;;;10437098;28;20220;-71
2022/10/19 01:59:53;;;;;;;4.57;4.27;;;18.80;47.00;;;;;;10438680;28;20227;-71
2022/10/19 02:04:59;;;;;;;5.20;4.70;;;18.80;46.60;;;;;;10435326;28;20240;-71
2022/10/19 02:10:02;;;;;;;6.50;4.40;;;18.80;46.90;;;;;;10436873;28;20224;-70
2022/10/19 02:15:12;;;;;;;5.33;4.30;;;18.70;46.30;;;;;;10433933;28;20232;-70
2022/10/19 02:20:18;;;;;;;5.03;4.20;;;18.70;46.90;;;;;;10438572;28;20229;-71
2022/10/19 02:25:22;;;;;;;4.50;4.10;;;18.70;46.60;;;;;;10432557;28;20233;-71
2022/10/19 02:30:25;;;;;;;4.30;4.00;;;18.60;46.30;;;;;;10439773;28;20236;-71
2022/10/19 02:35:30;;;;;;;4.67;4.20;;;18.60;46.30;;;;;;10432773;28;20232;-71
2022/10/19 02:40:39;;;;;;;5.03;3.93;;;18.60;46.70;;;;;;10438789;28;20217;-71
2022/10/19 02:45:49;;;;;;;5.87;3.93;;;18.60;47.30;;;;;;10438255;28;20283;-71
2022/10/19 02:50:53;;;;;;;4.07;3.77;;;18.60;47.30;;;;;;10437664;28;20252;-71
2022/10/19 02:55:56;;;;;;;4.80;4.30;;;18.60;46.80;;;;;;10438245;28;20734;-71
2022/10/19 03:00:59;;;;;;;4.63;4.30;;;18.60;46.60;;;;;;10437962;28;20275;-71
2022/10/19 03:06:04;;;;;;;5.87;4.47;;;18.60;46.50;;;;;;10436254;28;20258;-71
2022/10/19 03:11:08;;;;;;;4.37;4.07;;;18.60;46.80;;;;;;10436836;28;20229;-68
2022/10/19 03:16:13;;;;;;;4.80;4.30;;;18.50;46.70;;;;;;10442172;28;20221;-68
2022/10/19 03:21:18;;;;;;;5.47;4.33;;;18.50;47.10;;;;;;10442089;28;20272;-68
2022/10/19 03:26:21;;;;;;;5.80;4.37;;;18.50;47.30;;;;;;10445719;28;20237;-68
2022/10/19 03:31:25;;;;;;;5.70;4.80;;;18.50;46.80;;;;;;10444833;28;20612;-68
2022/10/19 03:36:32;;;;;;;7.10;4.33;;;18.50;47.10;;;;;;10444919;28;20229;-68
2022/10/19 03:41:36;;;;;;;4.83;4.27;;;18.50;47.40;;;;;;10441873;28;20256;-68
2022/10/19 03:46:40;;;;;;;4.90;4.40;;;18.40;47.40;;;;;;10443641;28;20232;-71
2022/10/19 03:51:44;;;;;;;5.20;4.67;;;18.40;47.30;;;;;;10443375;28;20233;-71
2022/10/19 03:56:47;;;;;;;5.63;4.97;;;18.50;47.40;;;;;;10444025;28;20229;-71
2022/10/19 04:01:50;;;;;;;9.23;4.77;;;18.50;47.40;;;;;;10444053;28;20271;-71
2022/10/19 04:06:55;;;;;;;5.33;4.93;;;18.50;47.50;;;;;;10442959;28;20232;-71
2022/10/19 04:11:58;;;;;;;4.90;4.40;;;18.50;47.40;;;;;;10433464;28;20742;-71
2022/10/19 04:17:01;;;;;;;6.90;5.53;;;18.50;47.40;;;;;;10439974;28;20217;-70
2022/10/19 04:22:06;;;;;;;5.80;5.17;;;18.40;47.30;;;;;;10437022;28;21061;-70
2022/10/19 04:27:09;;;;;;;8.47;7.60;;;18.50;47.40;;;;;;10442487;28;20706;-70
2022/10/19 04:32:12;;;;;;;12.37;10.83;;;18.50;47.40;;;;;;10442225;28;20232;-70
2022/10/19 04:37:16;;;;;;;14.77;11.80;;;18.40;47.30;;;;;;10442161;28;20224;-71
2022/10/19 04:42:20;;;;;;;14.33;12.87;;;18.40;47.30;;;;;;10441546;28;20229;-70
2022/10/19 04:47:23;;;;;;;15.07;13.47;;;18.40;47.30;;;;;;10440113;28;20776;-71
2022/10/19 04:52:27;;;;;;;20.30;12.67;;;18.40;47.40;;;;;;10441075;28;20233;-71
2022/10/19 04:57:30;;;;;;;13.77;12.47;;;18.30;47.70;;;;;;10439247;28;20229;-71
2022/10/19 05:02:34;;;;;;;12.53;11.40;;;18.30;47.20;;;;;;10442567;28;20229;-71
2022/10/19 05:07:38;;;;;;;16.07;10.93;;;18.30;47.20;;;;;;10439981;28;20789;-71
2022/10/19 05:12:42;;;;;;;9.77;8.97;;;18.30;47.80;;;;;;10437970;28;20228;-72
2022/10/19 05:17:45;;;;;;;10.00;9.00;;;18.20;47.20;;;;;;10440392;28;20637;-72
2022/10/19 05:22:50;;;;;;;8.63;7.93;;;18.20;47.20;;;;;;10437626;28;20224;-72
2022/10/19 05:27:53;;;;;;;7.63;7.03;;;18.20;47.30;;;;;;10440909;28;20221;-72
2022/10/19 05:32:56;;;;;;;7.17;6.57;;;18.10;47.10;;;;;;10423445;28;20225;-72
2022/10/19 05:38:00;;;;;;;6.90;6.40;;;18.00;47.00;;;;;;10427515;28;20232;-72
2022/10/19 05:43:03;;;;;;;7.20;6.60;;;18.00;47.30;;;;;;10429270;28;20287;-71
2022/10/19 05:48:07;;;;;;;7.80;7.00;;;18.00;47.00;;;;;;10437074;28;20603;-72
2022/10/19 05:53:11;;;;;;;7.40;6.63;;;17.90;46.90;;;;;;10433217;28;20444;-71
2022/10/19 05:58:14;;;;;;;7.53;6.87;;;17.90;47.70;;;;;;10430215;28;20244;-72
2022/10/19 06:03:17;;;;;;;7.53;7.03;;;17.90;47.30;;;;;;10427408;28;20233;-71
2022/10/19 06:08:23;;;;;;;7.00;6.40;;;17.90;47.40;;;;;;10431958;28;20383;-71
2022/10/19 06:13:26;;;;;;;7.20;6.60;;;17.80;47.90;;;;;;10433963;28;20233;-71
2022/10/19 06:18:29;;;;;;;8.60;7.80;;;17.80;47.60;;;;;;10431001;28;20227;-72
2022/10/19 06:23:34;;;;;;;9.50;8.60;;;17.90;47.70;;;;;;10435562;28;20228;-72
2022/10/19 06:28:39;;;;;;;9.10;8.27;;;17.90;48.00;;;;;;10433090;28;20774;-72
2022/10/19 06:33:45;;;;;;;13.30;9.60;;;17.90;47.70;;;;;;10436177;28;20232;-72
2022/10/19 06:38:53;;;;;;;9.83;8.63;;;17.90;48.00;;;;;;10435462;28;20221;-72
2022/10/19 06:43:57;;;;;;;8.20;7.50;;;17.90;47.70;;;;;;10434078;28;20263;-72
2022/10/19 06:49:01;;;;;;;8.20;7.43;;;17.90;47.20;;;;;;10435162;28;20255;-71
2022/10/19 06:54:06;;;;;;;8.83;8.03;;;17.80;47.50;;;;;;10427991;28;20274;-71
2022/10/19 06:59:09;;;;;;;14.47;8.03;;;17.80;48.00;;;;;;10440701;28;20274;-72
2022/10/19 07:04:12;;;;;;;9.20;7.60;;;17.80;47.80;;;;;;10442568;28;20233;-71
2022/10/19 07:09:17;;;;;;;8.70;8.00;;;17.80;47.80;;;;;;10441218;28;20280;-72
2022/10/19 07:14:23;;;;;;;13.10;7.97;;;17.80;48.20;;;;;;10442947;28;20236;-72
2022/10/19 07:19:26;;;;;;;8.73;7.83;;;17.80;47.80;;;;;;10439910;28;20248;-71
2022/10/19 07:24:31;;;;;;;8.90;8.00;;;17.80;47.80;;;;;;10438473;28;20290;-72
2022/10/19 07:29:34;;;;;;;10.30;7.47;;;17.80;48.20;;;;;;10440506;28;20233;-72
2022/10/19 07:34:37;;;;;;;8.63;7.83;;;17.80;47.90;;;;;;10437601;28;20262;-72
2022/10/19 07:39:41;;;;;;;8.73;7.47;;;17.80;48.10;;;;;;10442808;28;20228;-72
2022/10/19 07:44:44;;;;;;;6.90;6.40;;;17.80;48.40;;;;;;10435461;28;20229;-72
2022/10/19 07:49:48;;;;;;;6.17;5.70;;;17.80;48.10;;;;;;10442017;28;20273;-72
2022/10/19 07:54:53;;;;;;;6.40;5.90;;;17.80;48.10;;;;;;10443385;28;20232;-72
2022/10/19 07:59:56;;;;;;;7.70;6.17;;;17.80;48.40;;;;;;10441442;28;20230;-72
2022/10/19 08:04:59;;;;;;;6.63;6.00;;;17.80;48.00;;;;;;10433491;28;20225;-72
2022/10/19 08:10:11;;;;;;;6.70;6.20;;;17.80;48.00;;;;;;10440255;28;20608;-71
2022/10/19 08:15:14;;;;;;;7.13;6.43;;;17.90;48.20;;;;;;10440477;28;20270;-72
2022/10/19 08:20:17;;;;;;;6.33;5.83;;;17.90;47.90;;;;;;10438606;28;20229;-71
2022/10/19 08:25:22;;;;;;;6.73;6.23;;;17.90;47.80;;;;;;10439721;28;20691;-71
2022/10/19 08:30:25;;;;;;;7.13;6.53;;;17.90;48.00;;;;;;10437386;28;20274;-71
2022/10/19 08:35:30;;;;;;;8.57;7.87;;;17.90;47.70;;;;;;10438121;28;20742;-71
2022/10/19 08:40:34;;;;;;;9.33;8.43;;;17.90;47.50;;;;;;10438569;28;20229;-71
2022/10/19 08:45:41;;;;;;;9.97;9.03;;;17.90;47.70;;;;;;10436184;28;20298;-71
2022/10/19 08:50:46;;;;;;;9.73;8.83;;;17.90;48.10;;;;;;10442669;28;20745;-72
2022/10/19 08:56:01;;;;;;;9.57;8.70;;;17.80;48.00;;;;;;10438725;28;20726;-71
2022/10/19 09:01:11;;;;;;;10.60;9.60;;;17.90;48.20;;;;;;10434967;28;20224;-71
2022/10/19 09:06:22;;;;;;;9.20;8.37;;;17.90;48.10;;;;;;10438206;28;20236;-71
2022/10/19 09:11:30;;;;;;;14.10;12.60;;;17.90;48.40;;;;;;10434956;28;20788;-72
2022/10/19 09:16:34;;;;;;;14.23;12.83;;;18.00;49.20;;;;;;10436876;28;20677;-72
2022/10/19 09:21:43;;;;;;;19.07;17.27;;;18.00;48.00;;;;;;10435228;28;20733;-72
2022/10/19 09:26:53;;;;;;;19.77;17.87;;;18.00;48.70;;;;;;10436245;28;20323;-72
2022/10/19 09:31:59;;;;;;;21.27;19.17;;;18.10;48.90;;;;;;10440767;28;20225;-71
2022/10/19 09:37:03;;;;;;;19.00;17.30;;;18.10;48.40;;;;;;10437587;28;20240;-70
2022/10/19 09:42:23;;;;;;;20.77;18.90;;;18.10;48.30;;;;;;10430241;28;20264;-70
2022/10/19 09:47:34;;;;;;;19.93;18.13;;;18.10;48.80;;;;;;10439697;28;20255;-71
2022/10/19 09:52:40;;;;;;;15.50;14.00;;;18.00;49.00;;;;;;10437210;28;20233;-71
2022/10/19 09:57:46;;;;;;;12.53;11.43;;;18.00;48.70;;;;;;10439757;28;20236;-71
2022/10/19 10:02:50;;;;;;;11.20;10.30;;;18.10;49.50;;;;;;10438611;28;20236;-71
2022/10/19 10:07:55;;;;;;;10.67;9.83;;;18.20;50.00;;;;;;10438243;28;20228;-71
2022/10/19 10:13:00;;;;;;;9.90;9.10;;;18.40;50.40;;;;;;10432150;28;20233;-71
2022/10/19 10:18:04;;;;;;;8.17;7.53;;;18.70;50.20;;;;;;10436233;28;20224;-71
2022/10/19 10:23:20;;;;;;;6.40;5.90;;;19.00;50.30;;;;;;10434454;28;20233;-71
2022/10/19 10:28:27;;;;;;;6.10;5.63;;;19.20;49.90;;;;;;10437574;28;20281;-71
2022/10/19 10:33:32;;;;;;;6.50;5.90;;;19.40;49.60;;;;;;10434581;28;20595;-71
2022/10/19 10:38:51;;;;;;;6.17;5.67;;;19.70;49.60;;;;;;10433582;28;20698;-72
2022/10/19 10:44:00;;;;;;;5.13;4.77;;;19.90;48.70;;;;;;10436567;28;20225;-70
2022/10/19 10:49:16;;;;;;;4.13;3.73;;;20.10;48.80;;;;;;10437889;28;20225;-71
2022/10/19 10:54:21;;;;;;;3.30;3.10;;;20.30;47.40;;;;;;10434512;28;20232;-71
2022/10/19 10:59:29;;;;;;;3.50;3.30;;;20.40;47.00;;;;;;10435197;28;20734;-71
2022/10/19 11:04:39;;;;;;;3.27;3.07;;;20.60;45.60;;;;;;10435112;28;20221;-72
2022/10/19 11:09:46;;;;;;;2.90;2.70;;;20.70;45.60;;;;;;10439043;28;20232;-72
2022/10/19 11:14:56;;;;;;;3.23;3.00;;;20.70;45.40;;;;;;10433042;28;20286;-72
2022/10/19 11:19:59;;;;;;;3.50;2.57;;;20.80;44.60;;;;;;10425579;28;20244;-71
2022/10/19 11:25:24;;;;;;;2.80;2.50;;;20.90;45.60;;;;;;10430188;28;20256;-71
2022/10/19 11:30:32;;;;;;;2.50;2.40;;;20.90;44.20;;;;;;10429387;28;20224;-71
2022/10/19 11:35:51;;;;;;;2.70;2.50;;;21.00;44.10;;;;;;10437637;28;20316;-71
2022/10/19 11:41:02;;;;;;;2.80;2.60;;;21.00;43.60;;;;;;10438941;28;20228;-71
2022/10/19 11:46:25;;;;;;;2.60;2.50;;;21.10;43.90;;;;;;10441227;28;20217;-71
2022/10/19 11:51:34;;;;;;;2.53;2.33;;;21.20;43.30;;;;;;10439486;28;20597;-71
2022/10/19 11:56:43;;;;;;;2.60;2.40;;;21.30;43.20;;;;;;10437281;28;20894;-71
2022/10/19 12:02:22;;;;;;;2.83;2.63;;;21.40;42.70;;;;;;10442408;28;20675;-71
2022/10/19 12:07:50;;;;;;;2.87;2.67;;;21.50;42.30;;;;;;10443949;28;20586;-71
2022/10/19 12:12:58;;;;;;;2.80;2.60;;;21.50;41.80;;;;;;10440551;28;20232;-71
2022/10/19 12:18:10;;;;;;;2.67;2.50;;;21.60;42.20;;;;;;10441287;28;20228;-71
2022/10/19 12:23:26;;;;;;;2.50;2.40;;;21.60;41.70;;;;;;10439114;28;20257;-71
2022/10/19 12:28:32;;;;;;;3.10;2.90;;;21.70;41.70;;;;;;10415758;28;20232;-71
2022/10/19 12:33:46;;;;;;;3.10;2.90;;;21.70;42.40;;;;;;10430255;28;20320;-73
2022/10/19 12:38:57;;;;;;;3.20;3.00;;;21.80;41.70;;;;;;10429386;28;20217;-73
2022/10/19 12:44:20;;;;;;;3.10;2.73;;;21.80;41.70;;;;;;10431894;28;20604;-70
2022/10/19 12:49:43;;;;;;;2.90;2.70;;;21.80;41.10;;;;;;10437543;28;20236;-70
2022/10/19 12:54:46;;;;;;;3.00;2.73;;;21.90;41.30;;;;;;10435713;28;20229;-71
2022/10/19 13:00:00;;;;;;;3.03;2.83;;;21.80;42.20;;;;;;10431680;28;20236;-71
2022/10/19 13:05:05;;;;;;;2.87;2.67;;;21.80;40.80;;;;;;10433196;28;20297;-70
2022/10/19 13:10:19;;;;;;;2.97;2.77;;;21.80;41.50;;;;;;10433335;28;20233;-70
2022/10/19 13:15:56;;;;;;;2.90;2.70;;;21.80;41.10;;;;;;10437766;28;20240;-71
2022/10/19 13:21:01;;;;;;;2.70;2.50;;;21.80;41.50;;;;;;10433079;28;20229;-67
2022/10/19 13:26:31;;;;;;;2.90;2.70;;;21.80;41.70;;;;;;10438183;28;20620;-68
2022/10/19 13:31:36;;;;;;;3.73;2.93;;;21.80;40.70;;;;;;10429602;28;20221;-68
2022/10/19 13:36:59;;;;;;;2.80;2.60;;;21.90;41.70;;;;;;10439931;28;20323;-66
2022/10/19 13:42:02;;;;;;;2.97;2.77;;;21.90;40.90;;;;;;10432878;28;20283;-70
2022/10/19 13:47:30;;;;;;;2.87;2.67;;;21.90;41.50;;;;;;10433297;28;20224;-70
2022/10/19 13:52:52;;;;;;;2.47;2.37;;;21.90;40.60;;;;;;10437090;28;20838;-70
2022/10/19 13:58:25;;;;;;;2.93;2.83;;;21.90;40.20;;;;;;10435775;28;20233;-70
2022/10/19 14:03:41;;;;;;;4.13;2.70;;;21.90;40.00;;;;;;10437166;28;20229;-70
2022/10/19 14:09:05;;;;;;;3.03;2.83;;;22.00;40.60;;;;;;10438867;28;20220;-70
2022/10/19 14:14:20;;;;;;;3.60;3.30;;;21.90;40.20;;;;;;10433173;28;20228;-70
2022/10/19 14:19:27;;;;;;;3.53;3.33;;;21.90;40.40;;;;;;10431453;28;20232;-70
2022/10/19 14:24:34;;;;;;;4.17;3.00;;;21.90;41.00;;;;;;10437426;28;20228;-70
2022/10/19 14:29:45;;;;;;;3.20;3.00;;;21.80;40.80;;;;;;10434158;28;20232;-70
2022/10/19 14:34:49;;;;;;;3.60;3.03;;;21.80;40.50;;;;;;10436909;28;20233;-70
2022/10/19 14:40:03;;;;;;;2.73;2.53;;;21.80;41.10;;;;;;10436575;28;20221;-71
2022/10/19 14:45:13;;;;;;;3.40;3.10;;;21.80;40.60;;;;;;10435936;28;20264;-70
2022/10/19 14:50:16;;;;;;;3.27;2.80;;;21.70;40.60;;;;;;10434652;28;20654;-70
2022/10/19 14:55:22;;;;;;;3.50;3.00;;;21.70;41.20;;;;;;10435064;28;20314;-70
2022/10/19 15:00:25;;;;;;;3.20;3.00;;;21.80;40.90;;;;;;10437116;28;20221;-70
2022/10/19 15:05:36;;;;;;;3.10;2.90;;;21.70;41.10;;;;;;10436348;28;20772;-70
2022/10/19 15:10:44;;;;;;;3.33;3.07;;;21.70;40.70;;;;;;10431806;28;20232;-70
2022/10/19 15:15:51;;;;;;;3.50;3.20;;;21.70;40.50;;;;;;10442073;28;20232;-70
2022/10/19 15:21:04;;;;;;;3.20;3.00;;;21.60;40.40;;;;;;10442203;28;20225;-70
2022/10/19 15:26:26;;;;;;;3.90;3.00;;;21.60;40.30;;;;;;10441461;28;20600;-70
2022/10/19 15:31:30;;;;;;;3.30;3.00;;;21.60;40.20;;;;;;10441653;28;20239;-70
2022/10/19 15:36:33;;;;;;;3.03;2.83;;;21.50;40.90;;;;;;10443589;28;20279;-67
2022/10/19 15:41:39;;;;;;;3.50;3.20;;;21.50;40.80;;;;;;10444224;28;20247;-67
2022/10/19 15:47:18;;;;;;;3.20;3.00;;;21.40;40.10;;;;;;10441356;28;20229;-69
2022/10/19 15:52:22;;;;;;;3.97;3.50;;;21.40;39.80;;;;;;10442635;28;20699;-69
2022/10/19 15:57:30;;;;;;;3.43;3.23;;;21.30;40.10;;;;;;10440611;28;20232;-69
2022/10/19 16:02:33;;;;;;;3.47;3.17;;;21.20;39.80;;;;;;10443357;28;20232;-69
2022/10/19 16:07:39;;;;;;;4.37;3.20;;;21.20;40.20;;;;;;10437090;28;20232;-69
2022/10/19 16:12:43;;;;;;;3.23;3.00;;;21.10;39.70;;;;;;10442566;28;20661;-69
2022/10/19 16:17:48;;;;;;;3.80;3.37;;;20.90;39.60;;;;;;10441393;28;20222;-70
2022/10/19 16:22:52;;;;;;;3.53;3.17;;;20.80;39.80;;;;;;10439811;28;20233;-69
2022/10/19 16:27:57;;;;;;;4.37;4.00;;;20.70;39.80;;;;;;10441201;28;20221;-69
2022/10/19 16:33:00;;;;;;;4.90;4.33;;;20.60;39.50;;;;;;10441878;28;20584;-69
2022/10/19 16:38:03;;;;;;;4.63;4.13;;;20.40;39.80;;;;;;10438574;28;20282;-70
2022/10/19 16:43:07;;;;;;;4.23;3.83;;;20.30;39.80;;;;;;10441297;28;20232;-69
2022/10/19 16:48:12;;;;;;;4.00;3.70;;;20.20;39.70;;;;;;10440516;28;20279;-69
2022/10/19 16:53:15;;;;;;;8.83;4.80;;;20.10;39.80;;;;;;10441712;28;20715;-68
2022/10/19 16:58:19;;;;;;;4.43;4.03;;;20.00;40.00;;;;;;10441444;28;20236;-69
2022/10/19 17:03:22;;;;;;;5.97;4.27;;;19.90;39.80;;;;;;10437561;28;20232;-69
2022/10/19 17:08:25;;;;;;;7.60;4.83;;;19.80;39.90;;;;;;10435103;28;20232;-69
2022/10/19 17:13:49;;;;;;;8.17;4.80;;;19.70;39.90;;;;;;10439784;28;20437;-69
2022/10/19 17:18:55;;;;;;;8.63;5.53;;;19.60;39.90;;;;;;10437830;28;20226;-68
2022/10/19 17:24:00;;;;;;;8.13;7.07;;;19.50;39.90;;;;;;10441310;28;20231;-69
2022/10/19 17:29:05;;;;;;;7.83;6.50;;;19.50;40.20;;;;;;10438584;28;20228;-69
2022/10/19 17:34:09;;;;;;;5.40;4.90;;;19.40;40.00;;;;;;10435143;28;20229;-69
2022/10/19 17:39:16;;;;;;;5.33;4.70;;;19.30;40.10;;;;;;10441221;28;20263;-69
2022/10/19 17:44:21;;;;;;;7.43;6.20;;;19.20;39.80;;;;;;10436136;28;20518;-68
2022/10/19 17:49:24;;;;;;;5.60;4.50;;;19.10;39.60;;;;;;10433724;28;20264;-69
2022/10/19 17:54:28;;;;;;;5.47;5.07;;;19.00;39.80;;;;;;10439041;28;20225;-69
2022/10/19 17:59:32;;;;;;;4.63;4.20;;;18.90;39.70;;;;;;10436199;28;20283;-69
2022/10/19 18:04:54;;;;;;;5.37;4.40;;;18.80;39.70;;;;;;10432841;28;20492;-68
2022/10/19 18:09:57;;;;;;;5.10;4.70;;;18.60;39.80;;;;;;10436258;28;20225;-69
2022/10/19 18:15:02;;;;;;;5.40;4.20;;;18.50;39.90;;;;;;10435973;28;20267;-69
2022/10/19 18:20:06;;;;;;;5.07;4.67;;;18.40;39.80;;;;;;10433413;28;20239;-69
2022/10/19 18:25:10;;;;;;;6.63;5.43;;;18.30;40.00;;;;;;10430695;28;20236;-71
2022/10/19 18:30:14;;;;;;;7.57;6.73;;;18.20;39.90;;;;;;10434373;28;20279;-69
2022/10/19 18:35:17;;;;;;;6.00;5.50;;;18.10;40.00;;;;;;10422580;28;20645;-69
2022/10/19 18:40:21;;;;;;;8.87;8.07;;;18.00;40.20;;;;;;10419603;28;20283;-69
2022/10/19 18:45:25;;;;;;;8.13;7.33;;;17.90;40.30;;;;;;10435483;28;20710;-69
2022/10/19 18:50:30;;;;;;;15.20;13.70;;;17.90;40.50;;;;;;10444289;28;20311;-68
2022/10/19 18:55:33;;;;;;;12.50;10.63;;;17.80;40.40;;;;;;10440829;28;20244;-69
2022/10/19 19:00:39;;;;;;;10.80;9.53;;;17.80;40.50;;;;;;10444844;28;20765;-68
2022/10/19 19:05:47;;;;;;;12.90;9.57;;;17.70;40.50;;;;;;10441674;28;20765;-68
2022/10/19 19:10:50;;;;;;;10.13;9.10;;;17.70;40.50;;;;;;10442648;28;20412;-68
2022/10/19 19:15:59;;;;;;;9.60;8.60;;;17.60;40.20;;;;;;10435259;28;20239;-69
2022/10/19 19:21:03;;;;;;;8.27;7.57;;;17.50;40.20;;;;;;10438596;28;20718;-72
2022/10/19 19:26:08;;;;;;;8.27;7.00;;;17.40;40.40;;;;;;10438548;28;20232;-72
2022/10/19 19:31:14;;;;;;;6.57;5.97;;;17.30;40.30;;;;;;10441576;28;20236;-73
2022/10/19 19:36:19;;;;;;;5.87;5.23;;;17.20;40.40;;;;;;10439769;28;20721;-73
2022/10/19 19:41:23;;;;;;;6.10;5.10;;;17.10;40.10;;;;;;10436259;28;20247;-73
2022/10/19 19:46:27;;;;;;;5.87;5.37;;;17.00;40.20;;;;;;10440048;28;20242;-73
2022/10/19 19:51:32;;;;;;;4.77;4.37;;;17.00;40.30;;;;;;10438800;28;20232;-73
2022/10/19 19:56:36;;;;;;;5.67;4.70;;;16.90;40.30;;;;;;10437751;28;20232;-73
2022/10/19 20:01:41;;;;;;;5.47;4.97;;;16.80;40.20;;;;;;10437072;28;20231;-73
2022/10/19 20:06:44;;;;;;;5.10;4.70;;;16.70;40.30;;;;;;10434564;28;20217;-74
2022/10/19 20:11:47;;;;;;;6.10;5.50;;;16.60;40.40;;;;;;10433725;28;20220;-73
2022/10/19 20:16:52;;;;;;;5.10;4.70;;;16.60;40.40;;;;;;10432808;28;20232;-73
2022/10/19 20:21:57;;;;;;;5.73;5.23;;;16.50;40.30;;;;;;10430286;28;20236;-73
2022/10/19 20:27:00;;;;;;;5.30;4.87;;;16.40;40.30;;;;;;10428440;28;20951;-73
2022/10/19 20:32:05;;;;;;;4.80;4.40;;;16.40;40.40;;;;;;10432064;28;20232;-72
2022/10/19 20:37:08;;;;;;;4.63;4.23;;;16.40;40.50;;;;;;10430918;28;20232;-72
2022/10/19 20:42:12;;;;;;;4.90;4.50;;;16.30;40.30;;;;;;10428476;28;20640;-73
2022/10/19 20:47:16;;;;;;;5.43;4.93;;;16.20;40.40;;;;;;10430034;28;20351;-73
2022/10/19 20:52:20;;;;;;;5.70;4.93;;;16.20;41.10;;;;;;10429291;28;20710;-74
2022/10/19 20:57:23;;;;;;;5.67;5.00;;;16.20;40.50;;;;;;10429593;28;20251;-73
2022/10/19 21:02:28;;;;;;;5.70;5.20;;;16.20;40.60;;;;;;10428631;28;20765;-73
2022/10/19 21:07:31;;;;;;;5.83;5.30;;;16.10;40.40;;;;;;10430613;28;20512;-73
2022/10/19 21:12:34;;;;;;;5.27;4.77;;;16.10;40.40;;;;;;10431611;28;20323;-73
2022/10/19 21:17:40;;;;;;;5.30;4.80;;;16.00;40.40;;;;;;10431029;28;20334;-73
2022/10/19 21:22:43;;;;;;;5.67;5.17;;;15.90;40.20;;;;;;10430203;28;20251;-73
2022/10/19 21:27:46;;;;;;;5.10;4.70;;;15.90;40.20;;;;;;10429127;28;20335;-73
2022/10/19 21:32:51;;;;;;;6.27;5.70;;;15.80;40.20;;;;;;10431797;28;20609;-73
2022/10/19 21:37:54;;;;;;;5.60;5.20;;;15.70;40.30;;;;;;10434718;28;20254;-73
2022/10/19 21:42:57;;;;;;;6.30;5.70;;;15.60;40.30;;;;;;10433675;28;20738;-73
2022/10/19 21:48:02;;;;;;;6.50;5.70;;;15.60;40.30;;;;;;10438143;28;20237;-73
2022/10/19 21:53:05;;;;;;;6.30;5.80;;;15.60;40.30;;;;;;10436082;28;20236;-73
2022/10/19 21:58:08;;;;;;;5.47;5.07;;;15.50;40.30;;;;;;10436189;28;20229;-75
2022/10/19 22:03:12;;;;;;;6.63;6.00;;;15.50;40.40;;;;;;10438179;28;20729;-73
2022/10/19 22:08:17;;;;;;;6.40;5.83;;;15.40;40.20;;;;;;10433918;28;20987;-68
2022/10/19 22:13:20;;;;;;;7.50;6.80;;;15.40;40.30;;;;;;10435774;28;20534;-68
2022/10/19 22:18:24;;;;;;;7.03;6.43;;;15.30;40.20;;;;;;10434514;28;20839;-68
2022/10/19 22:23:27;;;;;;;6.67;6.17;;;15.30;40.20;;;;;;10436962;28;20303;-68
2022/10/19 22:28:31;;;;;;;6.37;5.77;;;15.20;40.20;;;;;;10434327;28;20231;-68
2022/10/19 22:33:35;;;;;;;6.57;5.97;;;15.10;40.20;;;;;;10436581;28;20599;-68
2022/10/19 22:38:39;;;;;;;6.10;5.60;;;15.10;40.30;;;;;;10436018;28;20228;-69
2022/10/19 22:43:42;;;;;;;7.40;6.70;;;15.00;40.30;;;;;;10431994;28;20229;-74
2022/10/19 22:48:47;;;;;;;7.63;6.93;;;15.00;40.50;;;;;;10435735;28;20227;-74
2022/10/19 22:53:50;;;;;;;6.83;6.33;;;14.90;40.50;;;;;;10433968;28;20236;-74
2022/10/19 22:58:53;;;;;;;7.70;7.07;;;14.90;40.50;;;;;;10431731;28;20274;-74
2022/10/19 23:03:57;;;;;;;9.13;8.33;;;14.80;40.50;;;;;;10432944;28;20225;-74
2022/10/19 23:09:00;;;;;;;7.97;7.20;;;14.70;40.50;;;;;;10434058;28;20228;-74
2022/10/19 23:14:04;;;;;;;8.87;8.07;;;14.70;40.40;;;;;;10430247;28;20236;-74
2022/10/19 23:19:08;;;;;;;8.93;8.03;;;14.60;40.50;;;;;;10435290;28;20645;-73
2022/10/19 23:24:11;;;;;;;8.80;8.00;;;14.50;40.50;;;;;;10432925;28;20237;-74
2022/10/19 23:29:15;;;;;;;8.10;7.40;;;14.40;40.40;;;;;;10430907;28;20726;-69
2022/10/19 23:34:19;;;;;;;8.93;8.03;;;14.40;40.70;;;;;;10437880;28;20220;-69
2022/10/19 23:39:23;;;;;;;9.03;8.23;;;14.40;40.80;;;;;;10440111;28;20225;-69
2022/10/19 23:44:26;;;;;;;9.70;7.93;;;14.30;40.80;;;;;;10436335;28;20225;-69
2022/10/19 23:49:30;;;;;;;8.93;8.03;;;14.30;40.90;;;;;;10440841;28;20232;-70
2022/10/19 23:54:33;;;;;;;8.83;7.53;;;14.20;41.20;;;;;;10440992;28;20255;-70
2022/10/19 23:59:37;;;;;;;8.57;7.63;;;14.20;41.20;;;;;;10440281;28;20224;-70
